Time;durP1;ratioP1;P1;durP2;ratioP2;P2;SDS_P1;SDS_P2;PMS_P1;PMS_P2;Temp;Humidity;BMP_temperature;BMP_pressure;BME280_temperature;BME280_humidity;BME280_pressure;Samples;Min_cycle;Max_cycle;Signal;HPM_P1;HPM_P2
2020/12/01 00:00:52;;;;;;;43.92;30.27;;;4.60;99.90;;;;;;5046706;28;20506;-67
2020/12/01 00:03:18;;;;;;;42.95;31.33;;;4.60;99.90;;;;;;5012829;28;20041;-66
2020/12/01 00:05:43;;;;;;;39.58;28.17;;;4.60;99.90;;;;;;5046520;28;20526;-67
2020/12/01 00:08:09;;;;;;;42.65;31.55;;;4.60;99.90;;;;;;5046136;28;20087;-65
2020/12/01 00:10:35;;;;;;;44.67;31.98;;;4.60;99.90;;;;;;5044424;28;20124;-65
2020/12/01 00:13:03;;;;;;;40.20;29.17;;;4.60;99.90;;;;;;5046677;28;20025;-67
2020/12/01 00:15:28;;;;;;;37.45;26.55;;;4.60;99.90;;;;;;5048261;28;20021;-67
2020/12/01 00:17:54;;;;;;;44.80;28.90;;;4.60;99.90;;;;;;5050221;28;20036;-67
2020/12/01 00:20:24;;;;;;;44.53;28.92;;;4.60;99.90;;;;;;5048342;28;20029;-67
2020/12/01 00:22:52;;;;;;;40.88;29.95;;;4.60;99.90;;;;;;5050620;28;20572;-66
2020/12/01 00:25:18;;;;;;;;;;;4.60;99.90;;;;;;5051060;28;20151;-66
2020/12/01 00:27:44;;;;;;;36.97;26.27;;;4.70;99.90;;;;;;5048537;28;20079;-67
2020/12/01 00:30:24;;;;;;;44.97;30.05;;;4.60;99.90;;;;;;5049385;28;20048;-64
2020/12/01 00:32:50;;;;;;;36.63;24.10;;;4.60;99.90;;;;;;5050324;28;20021;-64
2020/12/01 00:35:18;;;;;;;41.63;28.55;;;4.70;99.90;;;;;;5050382;28;20065;-66
2020/12/01 00:37:50;;;;;;;40.92;28.10;;;4.60;99.90;;;;;;5049949;28;20130;-68
2020/12/01 00:40:17;;;;;;;40.50;27.50;;;4.70;99.90;;;;;;5049689;28;20522;-66
2020/12/01 00:42:43;;;;;;;36.55;26.05;;;4.70;99.90;;;;;;5074618;22;20498;-63
2020/12/01 00:45:12;;;;;;;31.20;21.00;;;4.70;99.90;;;;;;5027699;28;20033;-66
2020/12/01 00:47:38;;;;;;;40.08;28.10;;;4.70;99.90;;;;;;5031532;28;20067;-66
2020/12/01 00:50:07;;;;;;;40.63;27.10;;;4.70;99.90;;;;;;5033209;28;20048;-67
2020/12/01 00:52:34;;;;;;;33.28;23.80;;;4.70;99.90;;;;;;5033857;28;20473;-67
2020/12/01 00:55:00;;;;;;;37.20;27.08;;;4.70;99.90;;;;;;5033533;28;20416;-67
2020/12/01 00:57:26;;;;;;;37.35;25.75;;;4.70;99.90;;;;;;5033478;28;20027;-66
2020/12/01 00:59:51;;;;;;;35.88;26.70;;;4.70;99.90;;;;;;5031774;28;20029;-66
2020/12/01 01:02:17;;;;;;;37.88;25.65;;;4.80;99.90;;;;;;5033580;28;20025;-65
2020/12/01 01:04:44;;;;;;;39.03;27.35;;;4.70;99.90;;;;;;5033261;28;20385;-65
2020/12/01 01:07:10;;;;;;;36.35;25.98;;;4.80;99.90;;;;;;5033568;28;20420;-66
2020/12/01 01:09:35;;;;;;;38.05;25.88;;;4.80;99.90;;;;;;5031390;28;20025;-65
2020/12/01 01:12:01;;;;;;;34.80;24.77;;;4.80;99.90;;;;;;5031777;28;20053;-65
2020/12/01 01:14:27;;;;;;;38.83;27.92;;;4.80;99.90;;;;;;5033520;28;20155;-66
2020/12/01 01:16:53;;;;;;;36.33;25.33;;;4.90;99.90;;;;;;5033086;28;20087;-65
2020/12/01 01:19:19;;;;;;;36.28;24.65;;;4.80;99.90;;;;;;5033613;28;20029;-66
2020/12/01 01:21:47;;;;;;;36.80;24.73;;;4.80;99.90;;;;;;5035406;28;20037;-66
2020/12/01 01:24:16;;;;;;;37.15;27.17;;;4.90;99.90;;;;;;5035830;28;20021;-66
2020/12/01 01:26:52;;;;;;;38.38;27.70;;;4.90;99.90;;;;;;5031505;28;20037;-65
2020/12/01 01:29:22;;;;;;;38.65;26.65;;;4.90;99.90;;;;;;5031498;28;20026;-65
2020/12/01 01:31:52;;;;;;;40.65;28.35;;;4.90;99.90;;;;;;5032068;28;20053;-66
2020/12/01 01:34:18;;;;;;;37.53;25.25;;;4.90;99.90;;;;;;5033459;28;20018;-66
2020/12/01 01:36:43;;;;;;;38.25;27.73;;;4.90;99.90;;;;;;5033144;28;20026;-66
2020/12/01 01:39:09;;;;;;;38.28;24.67;;;4.90;99.90;;;;;;5031155;28;20060;-66
2020/12/01 01:41:37;;;;;;;42.03;28.75;;;4.90;99.90;;;;;;5032860;28;20031;-66
2020/12/01 01:44:16;;;;;;;39.03;25.67;;;4.90;99.90;;;;;;5031227;28;20562;-66
2020/12/01 01:46:48;;;;;;;39.70;25.80;;;4.90;99.90;;;;;;5032675;28;20635;-67
2020/12/01 01:49:18;;;;;;;36.72;26.90;;;4.90;99.90;;;;;;5030885;28;20036;-67
2020/12/01 01:51:50;;;;;;;39.92;25.45;;;4.90;99.90;;;;;;5031276;28;20443;-67
2020/12/01 01:54:17;;;;;;;43.75;27.85;;;4.90;99.90;;;;;;5032515;28;20080;-67
2020/12/01 01:56:46;;;;;;;40.30;25.52;;;5.00;99.90;;;;;;5030844;28;20102;-66
2020/12/01 01:59:13;;;;;;;37.88;26.40;;;5.00;99.90;;;;;;5031849;28;20022;-64
2020/12/01 02:01:41;;;;;;;43.50;26.77;;;5.00;99.90;;;;;;5031091;28;20088;-67
2020/12/01 02:04:10;;;;;;;41.00;28.33;;;5.00;99.90;;;;;;5032333;28;20028;-66
2020/12/01 02:06:47;;;;;;;42.78;27.33;;;5.00;99.90;;;;;;5030843;28;20295;-66
2020/12/01 02:09:18;;;;;;;36.58;26.02;;;5.00;99.90;;;;;;5031630;28;20021;-66
2020/12/01 02:11:46;;;;;;;39.10;26.83;;;5.00;99.90;;;;;;5030839;28;20068;-66
2020/12/01 02:14:22;;;;;;;43.40;29.17;;;5.00;99.90;;;;;;5032200;28;20021;-66
2020/12/01 02:16:53;;;;;;;42.75;32.13;;;5.00;99.90;;;;;;5032153;28;20041;-66
2020/12/01 02:19:26;;;;;;;46.20;29.65;;;5.00;99.90;;;;;;5030269;28;20611;-66
2020/12/01 02:21:53;;;;;;;43.85;28.08;;;5.00;99.90;;;;;;5030660;28;20033;-65
2020/12/01 02:24:27;;;;;;;44.25;28.65;;;5.00;99.90;;;;;;5030664;28;20128;-66
2020/12/01 02:26:56;;;;;;;45.97;30.52;;;5.10;99.90;;;;;;5030510;28;20036;-67
2020/12/01 02:29:27;;;;;;;45.03;27.75;;;5.10;99.90;;;;;;5031270;28;20108;-66
2020/12/01 02:31:52;;;;;;;44.92;28.05;;;5.10;99.90;;;;;;5030511;28;20029;-66
2020/12/01 02:34:22;;;;;;;50.92;34.75;;;5.10;99.90;;;;;;5030336;28;20028;-66
2020/12/01 02:36:48;;;;;;;45.88;29.40;;;5.10;99.90;;;;;;5031427;28;20026;-66
2020/12/01 02:39:22;;;;;;;48.08;31.35;;;5.10;99.90;;;;;;5029909;28;20029;-66
2020/12/01 02:41:49;;;;;;;52.03;32.05;;;5.10;99.90;;;;;;5030460;28;20048;-66
2020/12/01 02:44:15;;;;;;;48.65;36.92;;;5.10;99.90;;;;;;5031589;28;20034;-66
2020/12/01 02:46:40;;;;;;;48.60;31.77;;;5.10;99.90;;;;;;5030357;28;20117;-66
2020/12/01 02:49:07;;;;;;;49.22;30.63;;;5.10;99.90;;;;;;5030959;28;20017;-65
2020/12/01 02:51:34;;;;;;;46.15;28.48;;;5.10;99.90;;;;;;5030382;28;20025;-65
2020/12/01 02:54:00;;;;;;;52.58;36.95;;;5.10;99.90;;;;;;5030103;28;20080;-66
2020/12/01 02:56:26;;;;;;;44.58;30.60;;;5.10;99.90;;;;;;5031635;28;20021;-66
2020/12/01 02:58:51;;;;;;;52.95;33.38;;;5.10;99.90;;;;;;5030787;28;20021;-65
2020/12/01 03:01:17;;;;;;;50.63;34.78;;;5.20;99.90;;;;;;5030313;28;20550;-66
2020/12/01 03:03:43;;;;;;;52.63;36.05;;;5.20;99.90;;;;;;5031580;28;20025;-65
2020/12/01 03:06:12;;;;;;;54.45;36.42;;;5.20;99.90;;;;;;5031482;28;20021;-66
2020/12/01 03:08:38;;;;;;;51.92;35.97;;;5.20;99.90;;;;;;5029723;28;20021;-66
2020/12/01 03:11:04;;;;;;;56.53;35.90;;;5.10;99.90;;;;;;5031555;28;20481;-65
2020/12/01 03:13:30;;;;;;;52.78;37.20;;;5.20;99.90;;;;;;5030251;28;20025;-65
2020/12/01 03:16:01;;;;;;;58.90;36.45;;;5.20;99.90;;;;;;5029621;28;20029;-67
2020/12/01 03:18:26;;;;;;;55.95;35.13;;;5.20;99.90;;;;;;5013932;28;20378;-66
2020/12/01 03:20:53;;;;;;;61.42;39.13;;;5.20;99.90;;;;;;5031423;28;20029;-64
2020/12/01 03:23:19;;;;;;;54.97;34.20;;;5.20;99.90;;;;;;5031210;28;20032;-65
2020/12/01 03:25:44;;;;;;;61.53;40.83;;;5.20;99.90;;;;;;5029998;28;20026;-66
2020/12/01 03:28:10;;;;;;;59.05;38.90;;;5.20;99.90;;;;;;5029580;28;20036;-67
2020/12/01 03:30:36;;;;;;;60.28;39.45;;;5.20;99.90;;;;;;5013246;28;20088;-66
2020/12/01 03:33:02;;;;;;;56.67;40.28;;;5.30;99.90;;;;;;5029711;28;20028;-66
2020/12/01 03:35:28;;;;;;;54.58;36.22;;;5.30;99.90;;;;;;5029872;28;20022;-66
2020/12/01 03:37:55;;;;;;;58.78;37.20;;;5.30;99.90;;;;;;5030821;28;20065;-67
2020/12/01 03:40:21;;;;;;;56.72;35.70;;;5.30;99.90;;;;;;5030701;28;20040;-66
2020/12/01 03:42:46;;;;;;;52.30;36.33;;;5.30;99.90;;;;;;5030971;28;20109;-67
2020/12/01 03:45:12;;;;;;;51.10;35.05;;;5.30;99.90;;;;;;5029957;28;20132;-65
2020/12/01 03:47:38;;;;;;;46.13;32.17;;;5.30;99.90;;;;;;5029685;28;20401;-65
2020/12/01 03:50:05;;;;;;;55.85;38.10;;;5.30;99.90;;;;;;5030517;28;20072;-66
2020/12/01 03:52:30;;;;;;;46.33;31.02;;;5.30;99.90;;;;;;5035002;28;20021;-65
2020/12/01 03:54:56;;;;;;;50.00;34.60;;;5.30;99.90;;;;;;5033573;28;20303;-66
2020/12/01 03:57:21;;;;;;;54.40;37.05;;;5.30;99.90;;;;;;5034675;28;20022;-65
2020/12/01 03:59:47;;;;;;;50.97;35.75;;;5.40;99.90;;;;;;5034493;28;20073;-66
2020/12/01 04:02:13;;;;;;;48.00;31.20;;;5.40;99.90;;;;;;5033709;28;20370;-66
2020/12/01 04:04:39;;;;;;;50.92;35.67;;;5.40;99.90;;;;;;5033104;28;20022;-65
2020/12/01 04:07:04;;;;;;;50.90;33.88;;;5.40;99.90;;;;;;5033313;28;20029;-66
2020/12/01 04:09:30;;;;;;;53.60;36.03;;;5.40;99.90;;;;;;5032302;28;20025;-65
2020/12/01 04:11:55;;;;;;;49.78;33.83;;;5.40;99.90;;;;;;5033129;28;20389;-67
2020/12/01 04:14:21;;;;;;;52.17;35.85;;;5.40;99.90;;;;;;5032870;28;20473;-67
2020/12/01 04:16:48;;;;;;;51.30;35.65;;;5.40;99.90;;;;;;5034655;28;20040;-65
2020/12/01 04:19:13;;;;;;;59.25;37.33;;;5.40;99.90;;;;;;5032447;28;20572;-66
2020/12/01 04:21:39;;;;;;;55.75;40.10;;;5.40;99.90;;;;;;5016402;28;20034;-67
2020/12/01 04:24:05;;;;;;;52.58;36.70;;;5.40;99.90;;;;;;5032876;28;20138;-68
2020/12/01 04:26:31;;;;;;;54.28;34.03;;;5.40;99.90;;;;;;5032869;28;20145;-65
2020/12/01 04:28:57;;;;;;;57.88;40.97;;;5.40;99.90;;;;;;5032038;28;20087;-66
2020/12/01 04:31:24;;;;;;;59.83;39.60;;;5.40;99.90;;;;;;5033151;28;20042;-66
2020/12/01 04:33:49;;;;;;;56.88;38.17;;;5.40;99.90;;;;;;5034056;28;20374;-67
2020/12/01 04:36:15;;;;;;;54.50;37.28;;;5.40;99.90;;;;;;5033971;28;20030;-66
2020/12/01 04:38:41;;;;;;;49.65;35.42;;;5.40;99.90;;;;;;5033221;28;20083;-67
2020/12/01 04:41:10;;;;;;;51.30;36.92;;;5.40;99.90;;;;;;5032643;28;20029;-67
2020/12/01 04:43:56;;;;;;;51.35;35.05;;;5.50;99.90;;;;;;5033391;28;20040;-65
2020/12/01 04:46:26;;;;;;;51.60;35.83;;;5.50;99.90;;;;;;5031877;28;20044;-66
2020/12/01 04:49:25;;;;;;;51.55;35.03;;;5.50;99.90;;;;;;5032070;28;20056;-66
2020/12/01 04:52:01;;;;;;;48.70;37.78;;;5.50;99.90;;;;;;5030164;28;20063;-67
2020/12/01 04:54:36;;;;;;;51.42;35.95;;;5.50;99.90;;;;;;5033989;28;20025;-66
2020/12/01 04:57:28;;;;;;;58.10;38.33;;;5.50;99.90;;;;;;5032526;28;20048;-66
2020/12/01 05:00:13;;;;;;;52.28;35.47;;;5.50;99.90;;;;;;5002280;28;20057;-66
2020/12/01 05:02:56;;;;;;;57.97;39.15;;;5.50;99.90;;;;;;5034294;28;20032;-67
2020/12/01 05:05:50;;;;;;;49.13;35.47;;;5.50;99.90;;;;;;5034533;28;20104;-67
2020/12/01 05:08:34;;;;;;;58.85;36.90;;;5.50;99.90;;;;;;5032169;28;20444;-65
2020/12/01 05:11:08;;;;;;;53.22;37.13;;;5.50;99.90;;;;;;5033165;28;20156;-67
2020/12/01 05:13:35;;;;;;;53.28;34.58;;;5.50;99.90;;;;;;5031917;28;20084;-67
2020/12/01 05:16:25;;;;;;;49.22;33.63;;;5.50;99.90;;;;;;5031808;28;20029;-68
2020/12/01 05:18:52;;;;;;;49.90;35.10;;;5.50;99.90;;;;;;5031151;28;20112;-67
2020/12/01 05:21:24;;;;;;;53.50;37.10;;;5.50;99.90;;;;;;5032751;28;20033;-65
2020/12/01 05:23:50;;;;;;;51.80;35.25;;;5.50;99.90;;;;;;5031945;28;20412;-67
2020/12/01 05:26:19;;;;;;;57.22;37.05;;;5.60;99.90;;;;;;5033095;28;20030;-66
2020/12/01 05:28:54;;;;;;;53.10;33.60;;;5.60;99.90;;;;;;5032008;28;20385;-65
2020/12/01 05:31:37;;;;;;;47.03;35.47;;;5.60;99.90;;;;;;5032762;28;20028;-66
2020/12/01 05:34:06;;;;;;;44.70;34.08;;;5.60;99.90;;;;;;5031384;28;20021;-65
2020/12/01 05:36:37;;;;;;;53.60;34.40;;;5.60;99.90;;;;;;5033219;28;20025;-67
2020/12/01 05:39:14;;;;;;;48.85;35.70;;;5.60;99.90;;;;;;5032183;28;20102;-67
2020/12/01 05:41:42;;;;;;;52.30;36.83;;;5.60;99.90;;;;;;5031094;28;20021;-65
2020/12/01 05:44:25;;;;;;;53.37;35.77;;;5.60;99.90;;;;;;5032257;28;20507;-67
2020/12/01 05:47:05;;;;;;;48.28;33.83;;;5.60;99.90;;;;;;5032518;28;20713;-65
2020/12/01 05:49:48;;;;;;;48.90;33.50;;;5.60;99.90;;;;;;5032339;28;20045;-67
2020/12/01 05:52:40;;;;;;;50.17;33.85;;;5.70;99.90;;;;;;5032433;28;20048;-68
2020/12/01 05:55:18;;;;;;;45.65;32.70;;;5.70;99.90;;;;;;5031152;28;20029;-67
2020/12/01 05:57:59;;;;;;;47.92;34.65;;;5.70;99.90;;;;;;5030678;28;20117;-67
2020/12/01 06:00:34;;;;;;;52.38;34.63;;;5.70;99.90;;;;;;5031713;28;20025;-67
2020/12/01 06:03:24;;;;;;;50.72;34.63;;;5.70;99.90;;;;;;5032304;28;20034;-67
2020/12/01 06:05:52;;;;;;;50.90;33.47;;;5.70;99.90;;;;;;5032242;28;20084;-65
2020/12/01 06:08:33;;;;;;;51.05;33.85;;;5.70;99.90;;;;;;5031427;28;20029;-67
2020/12/01 06:11:23;;;;;;;46.53;34.85;;;5.70;99.90;;;;;;5032586;28;20481;-65
2020/12/01 06:13:49;;;;;;;55.05;35.80;;;5.70;99.90;;;;;;5030546;28;20107;-66
2020/12/01 06:16:27;;;;;;;49.30;34.65;;;5.70;99.90;;;;;;5032040;28;20468;-66
2020/12/01 06:19:14;;;;;;;53.13;34.67;;;5.70;99.90;;;;;;5031398;28;20029;-66
2020/12/01 06:21:58;;;;;;;49.33;32.33;;;5.70;99.90;;;;;;5031866;28;20029;-68
2020/12/01 06:24:56;;;;;;;51.03;35.92;;;5.70;99.90;;;;;;5031938;28;20021;-66
2020/12/01 06:27:40;;;;;;;50.88;35.53;;;5.80;99.90;;;;;;5031763;28;20025;-68
2020/12/01 06:30:30;;;;;;;47.70;34.58;;;5.70;99.90;;;;;;5030388;28;20021;-66
2020/12/01 06:33:20;;;;;;;62.22;36.20;;;5.80;99.90;;;;;;5031987;28;20383;-66
2020/12/01 06:36:31;;;;;;;52.08;35.42;;;5.80;99.90;;;;;;5030341;28;20380;-67
2020/12/01 06:39:33;;;;;;;48.70;33.42;;;5.80;99.90;;;;;;5029793;28;20083;-68
2020/12/01 06:42:10;;;;;;;53.78;34.30;;;5.80;99.90;;;;;;5029651;28;20435;-68
2020/12/01 06:44:38;;;;;;;50.33;33.88;;;5.80;99.90;;;;;;5046797;22;20408;-66
2020/12/01 06:47:04;;;;;;;50.80;34.70;;;5.80;99.90;;;;;;5028864;28;20068;-67
2020/12/01 06:49:33;;;;;;;57.90;36.55;;;5.80;99.90;;;;;;5029962;28;20041;-65
2020/12/01 06:52:04;;;;;;;59.15;37.70;;;5.90;99.90;;;;;;5030802;28;20056;-66
2020/12/01 06:54:30;;;;;;;55.30;34.47;;;5.90;99.90;;;;;;5030465;28;20034;-66
2020/12/01 06:57:26;;;;;;;56.25;36.35;;;5.90;99.90;;;;;;5031558;28;20022;-66
2020/12/01 06:59:52;;;;;;;52.67;34.63;;;6.00;99.90;;;;;;5047352;28;20025;-67
2020/12/01 07:02:23;;;;;;;52.88;34.53;;;6.00;99.90;;;;;;5040407;28;20037;-66
2020/12/01 07:04:49;;;;;;;51.72;33.95;;;6.00;99.90;;;;;;5028735;28;20026;-67
2020/12/01 07:07:27;;;;;;;53.28;35.20;;;6.10;99.90;;;;;;5030361;28;20060;-64
2020/12/01 07:09:53;;;;;;;61.95;37.08;;;6.00;99.90;;;;;;5029792;28;20072;-65
2020/12/01 07:12:24;;;;;;;56.78;36.83;;;6.00;99.90;;;;;;5029875;28;20348;-64
2020/12/01 07:15:01;;;;;;;56.15;35.90;;;6.00;99.90;;;;;;5030116;28;20389;-66
2020/12/01 07:17:50;;;;;;;62.47;36.08;;;6.00;99.90;;;;;;5030478;28;20101;-67
2020/12/01 07:20:18;;;;;;;;;;;6.00;99.90;;;;;;5028799;28;20037;-67
2020/12/01 07:23:00;;;;;;;56.10;34.90;;;6.00;99.90;;;;;;5030418;28;19912;-66
2020/12/01 07:25:59;;;;;;;60.28;36.53;;;6.10;99.90;;;;;;5034119;28;20057;-67
2020/12/01 07:29:12;;;;;;;59.75;36.60;;;6.00;99.90;;;;;;5032240;28;20095;-67
2020/12/01 07:31:38;;;;;;;55.10;35.20;;;6.00;99.90;;;;;;5008428;28;20033;-66
2020/12/01 07:34:19;;;;;;;64.68;36.47;;;6.10;99.90;;;;;;5033957;28;20032;-65
2020/12/01 07:36:53;;;;;;;55.03;34.08;;;6.10;99.90;;;;;;5032985;28;20022;-67
2020/12/01 07:39:26;;;;;;;66.93;37.20;;;6.10;99.90;;;;;;5033737;28;20021;-65
2020/12/01 07:41:57;;;;;;;60.90;36.17;;;6.10;99.90;;;;;;5034079;28;20361;-66
2020/12/01 07:44:30;;;;;;;58.30;34.83;;;6.10;99.90;;;;;;5033887;28;20052;-67
2020/12/01 07:47:11;;;;;;;59.30;35.60;;;6.10;99.90;;;;;;5033985;28;20063;-66
2020/12/01 07:49:37;;;;;;;61.63;36.03;;;6.10;99.90;;;;;;5031831;28;20030;-65
2020/12/01 07:52:22;;;;;;;60.10;34.50;;;6.10;99.90;;;;;;5032674;28;20033;-65
2020/12/01 07:54:58;;;;;;;58.65;36.00;;;6.20;99.90;;;;;;5033938;28;20018;-67
2020/12/01 07:57:24;;;;;;;67.13;38.38;;;6.20;99.90;;;;;;5032789;28;20400;-66
2020/12/01 07:59:51;;;;;;;60.13;34.20;;;6.20;99.90;;;;;;5033108;28;20029;-65
2020/12/01 08:02:20;;;;;;;57.63;36.70;;;6.20;99.90;;;;;;5033894;28;20044;-66
2020/12/01 08:04:46;;;;;;;62.40;36.50;;;6.20;99.90;;;;;;5033734;28;20276;-64
2020/12/01 08:07:15;;;;;;;52.30;34.08;;;6.20;99.90;;;;;;5033925;28;20366;-65
2020/12/01 08:09:41;;;;;;;;;;;6.20;99.90;;;;;;5033127;28;20034;-66
2020/12/01 08:12:12;;;;;;;60.90;34.03;;;6.30;99.90;;;;;;5033679;28;19909;-66
2020/12/01 08:14:38;;;;;;;51.80;32.97;;;6.30;99.90;;;;;;5032109;28;20025;-65
2020/12/01 08:17:19;;;;;;;50.25;29.90;;;6.30;99.90;;;;;;5033202;28;20028;-66
2020/12/01 08:19:47;;;;;;;50.45;31.50;;;6.30;99.90;;;;;;5032582;28;20033;-65
2020/12/01 08:22:18;;;;;;;48.92;29.48;;;6.30;99.90;;;;;;5033550;28;20199;-64
2020/12/01 08:24:45;;;;;;;51.95;32.85;;;6.30;99.90;;;;;;5033196;28;20073;-66
2020/12/01 08:27:22;;;;;;;46.45;30.17;;;6.30;99.90;;;;;;5033663;28;20022;-68
2020/12/01 08:29:50;;;;;;;52.35;31.00;;;6.30;99.90;;;;;;5031072;28;20037;-66
2020/12/01 08:32:34;;;;;;;52.42;30.42;;;6.40;99.90;;;;;;5033007;28;20083;-66
2020/12/01 08:35:35;;;;;;;45.90;30.60;;;6.40;99.90;;;;;;5032281;28;20091;-65
2020/12/01 08:38:28;;;;;;;44.88;29.83;;;6.40;99.90;;;;;;5032760;28;20028;-67
2020/12/01 08:41:26;;;;;;;50.33;31.13;;;6.40;99.90;;;;;;5033110;28;20492;-66
2020/12/01 08:44:02;;;;;;;51.00;31.98;;;6.50;99.90;;;;;;4999087;28;20143;-64
2020/12/01 08:46:29;;;;;;;46.45;30.10;;;6.50;99.90;;;;;;5032800;28;20033;-65
2020/12/01 08:49:07;;;;;;;49.15;30.25;;;6.60;99.90;;;;;;5031999;28;20040;-66
2020/12/01 08:51:48;;;;;;;45.90;29.20;;;6.60;99.90;;;;;;5032521;28;20340;-66
2020/12/01 08:54:24;;;;;;;47.47;28.88;;;6.60;99.90;;;;;;5032122;28;20276;-67
2020/12/01 08:57:00;;;;;;;40.53;28.65;;;6.70;99.90;;;;;;5031236;28;20049;-67
2020/12/01 08:59:37;;;;;;;39.85;27.13;;;6.80;99.90;;;;;;5031645;28;20025;-67
2020/12/01 09:02:05;;;;;;;43.60;28.63;;;6.80;99.90;;;;;;5032336;28;20075;-66
2020/12/01 09:04:34;;;;;;;42.13;28.08;;;6.80;99.90;;;;;;5030950;28;20438;-66
2020/12/01 09:07:26;;;;;;;45.63;31.50;;;6.80;99.90;;;;;;5032206;28;20437;-66
2020/12/01 09:10:08;;;;;;;43.15;28.98;;;6.70;99.90;;;;;;5031828;28;20418;-66
2020/12/01 09:13:10;;;;;;;49.33;29.65;;;6.70;99.90;;;;;;5031961;28;20029;-65
2020/12/01 09:21:04;;;;;;;42.67;29.10;;;6.90;99.90;;;;;;5032174;28;20025;-65
2020/12/01 09:23:35;;;;;;;42.00;29.90;;;6.90;99.90;;;;;;5030302;28;20023;-64
2020/12/01 09:26:13;;;;;;;41.55;26.65;;;7.00;99.90;;;;;;5032168;28;20025;-64
2020/12/01 09:28:46;;;;;;;43.20;28.05;;;7.00;99.90;;;;;;5031237;28;20017;-62
2020/12/01 09:31:12;;;;;;;47.42;29.05;;;7.10;99.90;;;;;;5031884;28;20515;-63
2020/12/01 09:33:37;;;;;;;43.17;27.45;;;7.00;99.90;;;;;;5030524;28;20017;-63
2020/12/01 09:36:04;;;;;;;41.13;29.20;;;7.10;99.90;;;;;;5030747;28;20037;-62
2020/12/01 09:38:29;;;;;;;44.33;28.23;;;7.10;99.90;;;;;;5029966;28;20037;-63
2020/12/01 09:40:55;;;;;;;41.65;25.38;;;7.20;99.90;;;;;;5031858;28;20081;-64
2020/12/01 09:43:31;;;;;;;34.50;26.27;;;7.20;99.90;;;;;;5031560;28;20393;-66
2020/12/01 09:46:00;;;;;;;34.72;26.30;;;7.20;99.90;;;;;;5031191;28;20025;-64
2020/12/01 09:48:33;;;;;;;37.08;25.58;;;7.30;99.90;;;;;;5029360;28;20029;-64
2020/12/01 09:50:59;;;;;;;39.05;26.38;;;7.30;99.90;;;;;;5031281;28;20026;-63
2020/12/01 09:56:07;;;;;;;32.92;24.77;;;7.30;99.90;;;;;;5030957;28;20026;-62
2020/12/01 10:09:18;;;;;;;30.38;22.90;;;7.10;99.90;;;;;;5030446;28;20060;-62
2020/12/01 10:37:33;;;;;;;30.45;23.77;;;7.10;99.90;;;;;;5029447;28;20099;-64
2020/12/01 10:39:58;;;;;;;31.60;23.30;;;7.10;99.90;;;;;;5030367;28;20552;-64
2020/12/01 10:42:24;;;;;;;32.20;24.15;;;7.10;99.90;;;;;;5030903;28;20105;-65
2020/12/01 10:44:50;;;;;;;28.25;21.27;;;7.10;99.90;;;;;;5030578;28;20132;-64
2020/12/01 10:47:15;;;;;;;30.90;22.92;;;7.10;99.90;;;;;;5030790;28;20473;-64
2020/12/01 10:49:41;;;;;;;28.45;22.55;;;7.00;99.90;;;;;;5030023;28;20029;-64
2020/12/01 10:52:08;;;;;;;32.08;21.88;;;7.10;99.90;;;;;;5030694;28;20029;-64
2020/12/01 10:54:34;;;;;;;30.67;22.58;;;7.10;99.90;;;;;;5030949;28;20032;-64
2020/12/01 10:57:00;;;;;;;32.63;21.48;;;7.10;99.90;;;;;;5030940;28;20033;-64
2020/12/01 10:59:26;;;;;;;33.85;25.05;;;7.20;99.90;;;;;;5029684;28;20021;-64
2020/12/01 11:01:53;;;;;;;35.60;25.75;;;7.20;99.90;;;;;;5030731;28;20026;-61
2020/12/01 11:04:21;;;;;;;31.42;23.35;;;7.20;99.90;;;;;;5031070;28;20040;-64
2020/12/01 11:06:47;;;;;;;31.52;21.75;;;7.20;99.90;;;;;;5031039;28;20017;-64
2020/12/01 11:09:14;;;;;;;30.35;22.33;;;7.20;99.90;;;;;;5030541;28;20046;-64
2020/12/01 11:11:40;;;;;;;32.58;23.45;;;7.30;99.90;;;;;;5029360;28;20396;-64
2020/12/01 11:14:09;;;;;;;32.22;22.13;;;7.40;99.90;;;;;;5031066;28;20057;-64
2020/12/01 11:16:36;;;;;;;29.02;20.35;;;7.50;99.90;;;;;;5031251;28;20025;-64
2020/12/01 11:19:01;;;;;;;32.30;22.75;;;7.50;99.90;;;;;;5028134;28;20458;-63
2020/12/01 11:21:27;;;;;;;27.25;22.42;;;7.60;99.90;;;;;;5029665;28;20074;-65
2020/12/01 11:23:54;;;;;;;31.92;23.33;;;7.50;99.90;;;;;;5030152;28;20029;-65
2020/12/01 11:26:20;;;;;;;28.88;21.50;;;7.60;99.90;;;;;;5030390;28;20091;-64
2020/12/01 11:28:47;;;;;;;28.10;21.90;;;7.60;99.90;;;;;;5030062;28;20022;-64
2020/12/01 11:31:13;;;;;;;29.30;21.88;;;7.60;99.90;;;;;;5030183;28;20456;-65
2020/12/01 11:33:39;;;;;;;27.10;20.63;;;7.60;99.90;;;;;;5030360;28;20026;-65
2020/12/01 11:36:05;;;;;;;25.58;19.23;;;7.60;99.90;;;;;;5030528;28;20445;-66
2020/12/01 11:38:31;;;;;;;25.40;17.65;;;7.60;99.90;;;;;;5030065;28;20104;-65
2020/12/01 11:40:57;;;;;;;25.92;19.05;;;7.70;99.90;;;;;;5030335;28;20063;-65
2020/12/01 11:43:23;;;;;;;26.13;20.15;;;7.60;99.90;;;;;;5028904;28;20053;-64
2020/12/01 11:45:48;;;;;;;28.90;21.73;;;7.70;99.90;;;;;;5030406;28;20044;-64
2020/12/01 11:48:14;;;;;;;26.35;21.38;;;7.70;99.90;;;;;;5028162;28;20392;-65
2020/12/01 11:50:40;;;;;;;28.50;21.38;;;7.70;99.90;;;;;;5028089;28;20028;-65
2020/12/01 11:53:06;;;;;;;28.67;22.33;;;7.70;99.90;;;;;;5028302;28;20099;-64
2020/12/01 11:55:31;;;;;;;24.50;20.38;;;7.70;99.90;;;;;;5027335;28;20168;-65
2020/12/01 11:57:57;;;;;;;23.83;20.10;;;7.80;99.90;;;;;;5029949;28;20029;-66
2020/12/01 12:00:25;;;;;;;25.60;20.10;;;7.70;99.90;;;;;;5030063;28;20404;-63
2020/12/01 12:02:51;;;;;;;28.60;21.33;;;7.80;99.90;;;;;;5028716;28;20576;-64
2020/12/01 12:05:17;;;;;;;26.58;20.13;;;7.90;99.90;;;;;;5029764;28;20308;-64
2020/12/01 12:07:43;;;;;;;25.10;20.33;;;7.90;99.90;;;;;;5030057;28;20037;-65
2020/12/01 12:10:09;;;;;;;27.13;20.80;;;7.90;99.90;;;;;;5030785;28;20026;-65
2020/12/01 12:12:34;;;;;;;26.95;21.23;;;7.90;99.90;;;;;;5033683;28;20021;-65
2020/12/01 12:15:00;;;;;;;24.73;20.30;;;7.90;99.90;;;;;;5033360;28;20025;-67
2020/12/01 12:17:26;;;;;;;27.27;21.73;;;8.00;99.90;;;;;;5033898;28;20564;-66
2020/12/01 12:19:52;;;;;;;26.73;21.20;;;7.90;99.90;;;;;;5033551;28;20465;-62
2020/12/01 12:22:18;;;;;;;28.45;23.75;;;7.90;99.90;;;;;;5033684;28;20026;-64
2020/12/01 12:24:43;;;;;;;27.17;21.83;;;7.90;99.90;;;;;;5033284;28;20551;-64
2020/12/01 12:27:09;;;;;;;29.33;24.63;;;7.90;99.90;;;;;;5032128;28;20443;-64
2020/12/01 12:29:35;;;;;;;29.40;22.33;;;8.00;99.90;;;;;;5033187;28;20030;-64
2020/12/01 12:32:01;;;;;;;30.45;23.65;;;8.00;99.90;;;;;;5032984;28;20564;-65
2020/12/01 12:34:27;;;;;;;30.67;23.13;;;8.00;99.90;;;;;;5033086;28;20022;-65
2020/12/01 12:36:53;;;;;;;30.83;24.35;;;8.00;99.90;;;;;;5033341;28;20112;-65
2020/12/01 12:39:19;;;;;;;25.88;20.92;;;8.00;99.90;;;;;;5032975;28;20022;-65
2020/12/01 12:41:45;;;;;;;29.90;21.73;;;8.10;99.90;;;;;;5032984;28;20036;-64
2020/12/01 12:44:11;;;;;;;23.92;20.88;;;8.10;99.90;;;;;;5056707;22;20416;-57
2020/12/01 12:46:37;;;;;;;24.73;21.52;;;8.10;99.90;;;;;;5032028;28;20053;-57
2020/12/01 12:49:05;;;;;;;27.00;22.02;;;8.20;99.90;;;;;;5032669;28;20045;-59
2020/12/01 12:51:33;;;;;;;29.73;21.63;;;8.20;99.90;;;;;;5033443;28;20075;-58
2020/12/01 12:53:58;;;;;;;26.90;21.60;;;8.20;99.90;;;;;;5034007;28;20029;-61
2020/12/01 12:56:25;;;;;;;26.05;21.45;;;8.20;99.90;;;;;;5033532;28;20268;-59
2020/12/01 12:58:52;;;;;;;24.92;21.92;;;8.30;99.90;;;;;;4677645;28;10000489;-58
2020/12/01 13:01:18;;;;;;;24.27;21.45;;;8.30;99.90;;;;;;5027348;28;20021;-58
2020/12/01 13:03:44;;;;;;;24.88;21.48;;;8.30;99.90;;;;;;5025165;28;20029;-55
2020/12/01 13:06:10;;;;;;;25.42;20.73;;;8.30;99.90;;;;;;5029072;28;20033;-55
2020/12/01 13:08:35;;;;;;;24.75;20.58;;;8.40;99.90;;;;;;5026848;28;20022;-54
2020/12/01 13:11:01;;;;;;;22.90;20.27;;;8.40;99.90;;;;;;5026820;28;20037;-60
2020/12/01 13:13:27;;;;;;;23.70;19.73;;;8.50;99.90;;;;;;5027290;28;20088;-57
2020/12/01 13:15:52;;;;;;;23.35;20.20;;;8.40;99.90;;;;;;5041137;28;20036;-57
2020/12/01 13:18:18;;;;;;;24.73;20.60;;;8.40;99.90;;;;;;5037541;28;20080;-57
2020/12/01 13:20:44;;;;;;;22.25;19.83;;;8.30;99.90;;;;;;5029178;28;20538;-55
2020/12/01 13:23:09;;;;;;;25.35;20.50;;;8.40;99.90;;;;;;5029214;28;20033;-59
2020/12/01 13:25:35;;;;;;;24.55;19.83;;;8.40;99.90;;;;;;5028174;28;20591;-61
2020/12/01 13:28:00;;;;;;;22.00;19.30;;;8.40;99.90;;;;;;5027648;28;20033;-59
2020/12/01 13:30:26;;;;;;;23.45;19.75;;;8.30;99.90;;;;;;5027166;28;20059;-57
2020/12/01 13:32:53;;;;;;;23.73;19.90;;;8.30;99.90;;;;;;5043921;28;20033;-54
2020/12/01 13:35:20;;;;;;;22.55;19.55;;;8.30;99.90;;;;;;5049752;28;20048;-59
2020/12/01 13:37:45;;;;;;;24.15;19.85;;;8.40;99.90;;;;;;5038872;28;20322;-60
2020/12/01 13:40:14;;;;;;;23.38;20.52;;;8.40;99.90;;;;;;5029612;28;20080;-61